createdAt,value
2023-02-03T00:02:05.570Z,13.31
2023-02-03T00:04:37.604Z,13.29
2023-02-03T00:07:12.678Z,13.26
2023-02-03T00:09:44.645Z,13.24
2023-02-03T00:12:16.685Z,13.22
2023-02-03T00:14:48.573Z,13.20
2023-02-03T00:17:20.443Z,13.18
2023-02-03T00:19:52.392Z,13.15
2023-02-03T00:22:24.241Z,13.14
2023-02-03T00:24:56.121Z,13.10
2023-02-03T00:27:27.965Z,13.09
2023-02-03T00:30:00.055Z,13.07
2023-02-03T00:32:32.123Z,13.06
2023-02-03T00:35:05.041Z,13.04
2023-02-03T00:37:36.957Z,13.02
2023-02-03T00:40:09.465Z,12.99
2023-02-03T00:42:41.472Z,12.98
2023-02-03T00:45:13.417Z,12.96
2023-02-03T00:47:45.379Z,12.95
2023-02-03T00:50:18.732Z,12.93
2023-02-03T00:52:50.681Z,12.91
2023-02-03T00:55:22.554Z,12.89
2023-02-03T00:57:54.413Z,12.88
2023-02-03T01:00:26.591Z,12.86
2023-02-03T01:03:00.445Z,12.84
2023-02-03T01:05:32.439Z,12.82
2023-02-03T01:08:04.570Z,12.81
2023-02-03T01:10:39.187Z,12.79
2023-02-03T01:13:11.141Z,12.78
2023-02-03T01:15:48.409Z,12.77
2023-02-03T01:18:21.387Z,12.75
2023-02-03T01:20:53.332Z,12.74
2023-02-03T01:23:25.311Z,12.71
2023-02-03T01:25:57.245Z,12.69
2023-02-03T01:28:30.869Z,12.69
2023-02-03T01:31:15.215Z,12.67
2023-02-03T01:33:48.840Z,12.65
2023-02-03T01:36:22.845Z,12.65
2023-02-03T01:38:54.942Z,12.61
2023-02-03T01:41:29.948Z,12.62
2023-02-03T01:44:02.801Z,12.60
2023-02-03T01:46:41.784Z,12.59
2023-02-03T01:49:19.125Z,12.56
2023-02-03T01:51:53.642Z,12.55
2023-02-03T01:54:39.376Z,12.54
2023-02-03T01:57:17.483Z,12.53
2023-02-03T01:59:51.120Z,12.52
2023-02-03T02:02:23.282Z,12.51
2023-02-03T02:05:35.713Z,12.50
2023-02-03T02:08:09.221Z,12.48
2023-02-03T02:10:41.277Z,12.47
2023-02-03T02:13:14.184Z,12.45
2023-02-03T02:15:58.190Z,12.44
2023-02-03T02:18:33.315Z,12.43
2023-02-03T02:21:08.199Z,12.42
2023-02-03T02:24:15.803Z,12.40
2023-02-03T02:26:52.217Z,12.39
2023-02-03T02:29:49.547Z,12.38
2023-02-03T02:32:43.120Z,12.36
2023-02-03T02:35:31.210Z,12.35
2023-02-03T02:38:05.281Z,12.33
2023-02-03T02:40:40.297Z,12.31
2023-02-03T02:43:20.357Z,12.31
2023-02-03T02:46:03.236Z,12.30
2023-02-03T02:49:28.178Z,12.29
2023-02-03T02:52:03.391Z,12.27
2023-02-03T02:54:39.657Z,12.26
2023-02-03T02:57:13.318Z,12.24
2023-02-03T02:59:46.884Z,12.23
2023-02-03T03:02:19.200Z,12.23
2023-02-03T03:04:51.533Z,12.22
2023-02-03T03:07:26.684Z,12.21
2023-02-03T03:10:02.830Z,12.20
2023-02-03T03:12:36.701Z,12.20
2023-02-03T03:15:15.855Z,12.23
2023-02-03T03:18:01.850Z,12.29
2023-02-03T03:20:33.902Z,12.40
2023-02-03T03:23:14.468Z,12.51
2023-02-03T03:25:51.980Z,12.65
2023-02-03T03:28:28.463Z,12.78
2023-02-03T03:31:00.466Z,12.95
2023-02-03T03:33:32.505Z,13.12
2023-02-03T03:36:19.800Z,13.31
2023-02-03T03:39:24.846Z,13.54
2023-02-03T03:42:23.684Z,13.79
2023-02-03T03:45:02.592Z,14.06
2023-02-03T03:47:47.817Z,14.28
2023-02-03T03:50:21.880Z,14.52
2023-02-03T03:52:54.716Z,14.74
2023-02-03T03:55:31.916Z,14.93
2023-02-03T03:58:10.873Z,15.07
2023-02-03T04:00:43.891Z,15.20
2023-02-03T04:03:23.749Z,15.31
2023-02-03T04:05:55.640Z,15.41
2023-02-03T04:08:27.519Z,15.49
2023-02-03T04:10:59.483Z,15.56
2023-02-03T04:13:31.634Z,15.61
2023-02-03T04:16:03.594Z,15.66
2023-02-03T04:18:35.528Z,15.70
2023-02-03T04:21:07.887Z,15.72
2023-02-03T04:23:39.725Z,15.74
2023-02-03T04:26:11.679Z,15.76
2023-02-03T04:28:44.303Z,15.75
2023-02-03T04:31:17.198Z,15.75
2023-02-03T04:33:49.116Z,15.75
2023-02-03T04:36:21.190Z,15.73
2023-02-03T04:38:53.055Z,15.72
2023-02-03T04:41:24.960Z,15.68
2023-02-03T04:43:56.852Z,15.66
2023-02-03T04:46:28.786Z,15.64
2023-02-03T04:49:00.655Z,15.61
2023-02-03T04:51:32.623Z,15.56
2023-02-03T04:54:04.504Z,15.54
2023-02-03T04:56:37.014Z,15.49
2023-02-03T04:59:08.977Z,15.44
2023-02-03T05:01:40.878Z,15.41
2023-02-03T05:04:12.763Z,15.38
2023-02-03T05:06:44.674Z,15.36
2023-02-03T05:09:16.584Z,15.35
2023-02-03T05:11:48.484Z,15.36
2023-02-03T05:14:20.820Z,15.39
2023-02-03T05:16:52.795Z,15.45
2023-02-03T05:19:24.800Z,15.52
2023-02-03T05:21:56.709Z,15.61
2023-02-03T05:24:28.638Z,15.72
2023-02-03T05:27:00.485Z,15.82
2023-02-03T05:29:32.452Z,15.95
2023-02-03T05:32:04.554Z,16.08
2023-02-03T05:34:36.608Z,16.21
2023-02-03T05:37:08.566Z,16.35
2023-02-03T05:39:40.468Z,16.48
2023-02-03T05:42:12.321Z,16.61
2023-02-03T05:44:44.248Z,16.72
2023-02-03T05:47:16.140Z,16.83
2023-02-03T05:49:48.069Z,16.93
2023-02-03T05:52:19.922Z,17.04
2023-02-03T05:54:51.849Z,17.12
2023-02-03T05:57:23.777Z,17.21
2023-02-03T05:59:55.633Z,17.27
2023-02-03T06:02:27.549Z,17.33
2023-02-03T06:04:59.397Z,17.37
2023-02-03T06:07:31.285Z,17.40
2023-02-03T06:10:03.332Z,17.42
2023-02-03T06:12:35.291Z,17.42
2023-02-03T06:15:08.083Z,17.43
2023-02-03T06:17:40.094Z,17.42
2023-02-03T06:20:13.419Z,17.41
2023-02-03T06:22:45.917Z,17.38
2023-02-03T06:25:17.999Z,17.36
2023-02-03T06:27:50.645Z,17.34
2023-02-03T06:30:24.048Z,17.32
2023-02-03T06:32:56.039Z,17.28
2023-02-03T06:35:28.015Z,17.24
2023-02-03T06:37:59.944Z,17.20
2023-02-03T06:40:31.896Z,17.16
2023-02-03T06:43:03.816Z,17.12
2023-02-03T06:45:35.794Z,17.08
2023-02-03T06:48:07.953Z,17.05
2023-02-03T06:50:39.881Z,17.00
2023-02-03T06:53:11.724Z,16.97
2023-02-03T06:55:43.658Z,16.93
2023-02-03T06:58:16.312Z,16.90
2023-02-03T07:00:48.253Z,16.86
2023-02-03T07:03:20.126Z,16.82
2023-02-03T07:05:52.050Z,16.80
2023-02-03T07:08:23.942Z,16.78
2023-02-03T07:10:56.116Z,16.77
2023-02-03T07:13:28.030Z,16.76
2023-02-03T07:16:00.188Z,16.77
2023-02-03T07:18:48.193Z,16.78
2023-02-03T07:21:20.393Z,16.79
2023-02-03T07:23:52.341Z,16.80
2023-02-03T07:26:25.537Z,16.82
2023-02-03T07:29:00.229Z,16.83
2023-02-03T07:31:32.269Z,16.87
2023-02-03T07:34:05.084Z,16.93
2023-02-03T07:36:37.005Z,16.94
2023-02-03T07:39:08.878Z,16.92
2023-02-03T07:41:40.943Z,16.90
2023-02-03T07:44:12.904Z,16.88
2023-02-03T07:46:45.834Z,16.87
2023-02-03T07:49:17.735Z,16.90
2023-02-03T07:51:49.614Z,17.05
2023-02-03T07:54:21.501Z,17.41
2023-02-03T07:56:54.380Z,17.79
2023-02-03T07:59:26.252Z,18.08
2023-02-03T08:02:01.129Z,18.31
2023-02-03T08:04:33.051Z,18.58
2023-02-03T08:07:05.187Z,18.88
2023-02-03T08:09:37.073Z,19.10
2023-02-03T08:12:08.932Z,19.17
2023-02-03T08:14:40.848Z,19.24
2023-02-03T08:17:12.685Z,19.38
2023-02-03T08:19:44.680Z,19.54
2023-02-03T08:22:16.873Z,19.75
2023-02-03T08:24:48.884Z,20.00
2023-02-03T08:27:22.707Z,20.26
2023-02-03T08:29:54.602Z,20.47
2023-02-03T08:32:26.979Z,20.61
2023-02-03T08:34:58.921Z,20.69
2023-02-03T08:37:32.738Z,20.71
2023-02-03T08:40:06.190Z,20.70
2023-02-03T08:42:38.338Z,20.71
2023-02-03T08:45:10.836Z,20.83
2023-02-03T08:47:43.159Z,20.92
2023-02-03T08:50:15.148Z,20.96
2023-02-03T08:52:47.146Z,21.04
2023-02-03T08:55:19.120Z,21.14
2023-02-03T08:57:51.095Z,21.20
2023-02-03T09:00:23.203Z,21.30
2023-02-03T09:02:55.095Z,21.54
2023-02-03T09:05:27.055Z,21.88
2023-02-03T09:07:59.076Z,22.20
2023-02-03T09:10:31.239Z,22.68
2023-02-03T09:13:03.354Z,23.20
2023-02-03T09:15:35.249Z,23.46
2023-02-03T09:18:07.398Z,23.62
2023-02-03T09:20:39.360Z,23.70
2023-02-03T09:23:11.456Z,23.74
2023-02-03T09:25:46.719Z,23.89
2023-02-03T09:28:19.897Z,24.04
2023-02-03T09:30:51.810Z,24.13
2023-02-03T09:33:23.873Z,24.19
2023-02-03T09:35:56.992Z,24.18
2023-02-03T09:38:29.469Z,24.13
2023-02-03T09:41:16.814Z,24.00
2023-02-03T09:43:54.523Z,23.83
2023-02-03T09:46:30.141Z,23.71
2023-02-03T09:49:42.530Z,23.72
2023-02-03T09:52:20.572Z,23.64
2023-02-03T09:55:13.708Z,23.47
2023-02-03T09:58:15.959Z,23.31
2023-02-03T10:00:57.490Z,23.18
2023-02-03T10:03:43.796Z,23.17
2023-02-03T10:06:43.437Z,23.18
2023-02-03T10:09:37.828Z,23.14
2023-02-03T10:12:41.209Z,23.15
2023-02-03T10:15:32.280Z,23.24
2023-02-03T10:18:11.227Z,23.15
2023-02-03T10:20:47.779Z,23.09
2023-02-03T10:23:33.910Z,23.17
2023-02-03T10:26:08.563Z,23.14
2023-02-03T10:28:54.235Z,23.09
2023-02-03T10:31:34.973Z,23.38
2023-02-03T10:34:15.021Z,23.95
2023-02-03T10:37:01.977Z,24.23
2023-02-03T10:39:45.351Z,24.41
2023-02-03T10:42:18.167Z,24.41
2023-02-03T10:44:58.235Z,24.42
2023-02-03T10:47:45.555Z,24.58
2023-02-03T10:50:20.946Z,24.95
2023-02-03T10:53:12.770Z,24.97
2023-02-03T10:55:46.360Z,24.68
2023-02-03T10:58:26.236Z,24.34
2023-02-03T11:01:07.513Z,24.00
2023-02-03T11:03:43.115Z,23.84
2023-02-03T11:06:17.333Z,23.96
2023-02-03T11:08:50.935Z,24.07
2023-02-03T11:11:32.658Z,24.00
2023-02-03T11:14:04.543Z,23.83
2023-02-03T11:16:39.266Z,23.51
2023-02-03T11:19:22.513Z,23.14
2023-02-03T11:21:56.993Z,22.75
2023-02-03T11:24:32.028Z,22.41
2023-02-03T11:27:07.040Z,22.08
2023-02-03T11:29:42.106Z,21.80
2023-02-03T11:32:23.221Z,21.53
2023-02-03T11:35:04.443Z,21.27
2023-02-03T11:37:39.115Z,21.04
2023-02-03T11:40:15.229Z,20.81
2023-02-03T11:42:50.170Z,20.56
2023-02-03T11:45:45.481Z,20.31
2023-02-03T11:48:36.135Z,20.07
2023-02-03T11:51:38.010Z,19.85
2023-02-03T11:54:19.496Z,19.64
2023-02-03T11:57:22.032Z,19.48
2023-02-03T12:00:04.520Z,19.30
2023-02-03T12:02:39.824Z,19.15
2023-02-03T12:05:23.932Z,19.00
2023-02-03T12:08:09.942Z,18.85
2023-02-03T12:11:08.068Z,18.71
2023-02-03T12:14:04.510Z,18.56
2023-02-03T12:16:56.124Z,18.40
2023-02-03T12:19:39.307Z,18.28
2023-02-03T12:22:23.031Z,18.17
2023-02-03T12:25:05.949Z,18.12
2023-02-03T12:27:54.784Z,18.09
2023-02-03T12:30:35.378Z,18.10
2023-02-03T12:33:16.520Z,18.11
2023-02-03T12:36:03.893Z,18.12
2023-02-03T12:39:02.923Z,18.15
2023-02-03T12:41:43.330Z,18.20
2023-02-03T12:44:26.975Z,18.28
2023-02-03T12:47:12.583Z,18.37
2023-02-03T12:49:52.902Z,18.50
2023-02-03T12:52:27.699Z,18.62
2023-02-03T12:55:27.816Z,18.76
2023-02-03T12:58:06.589Z,18.94
2023-02-03T13:01:21.060Z,19.06
2023-02-03T13:04:02.230Z,19.18
2023-02-03T13:06:52.164Z,19.26
2023-02-03T13:09:30.216Z,19.34
2023-02-03T13:12:05.078Z,19.38
2023-02-03T13:14:48.579Z,19.41
2023-02-03T13:17:50.493Z,19.42
2023-02-03T13:20:25.491Z,19.42
2023-02-03T13:22:58.427Z,19.41
2023-02-03T13:25:48.893Z,19.38
2023-02-03T13:28:58.418Z,19.35
2023-02-03T13:31:30.394Z,19.29
2023-02-03T13:34:27.127Z,19.23
2023-02-03T13:37:08.280Z,19.17
2023-02-03T13:39:49.496Z,19.09
2023-02-03T13:42:30.710Z,19.01
2023-02-03T13:45:14.513Z,18.93
2023-02-03T13:47:51.491Z,18.85
2023-02-03T13:50:29.876Z,18.75
2023-02-03T13:53:29.730Z,18.67
2023-02-03T13:56:03.858Z,18.58
2023-02-03T13:58:39.104Z,18.50
2023-02-03T14:01:34.044Z,18.41
2023-02-03T14:04:09.765Z,18.32
2023-02-03T14:06:43.329Z,18.23
2023-02-03T14:09:24.214Z,18.16
2023-02-03T14:12:15.123Z,18.08
2023-02-03T14:14:53.338Z,17.98
2023-02-03T14:17:48.542Z,17.91
2023-02-03T14:20:29.508Z,17.82
2023-02-03T14:23:07.549Z,17.74
2023-02-03T14:25:50.682Z,17.66
2023-02-03T14:28:38.278Z,17.58
2023-02-03T14:31:26.615Z,17.49
2023-02-03T14:34:13.191Z,17.41
2023-02-03T14:36:45.135Z,17.34
2023-02-03T14:39:20.296Z,17.28
2023-02-03T14:42:18.790Z,17.22
2023-02-03T14:45:00.380Z,17.13
2023-02-03T14:47:48.631Z,17.06
2023-02-03T14:50:23.626Z,16.98
2023-02-03T14:53:01.158Z,16.92
2023-02-03T14:56:11.656Z,16.85
2023-02-03T14:58:53.303Z,16.77
2023-02-03T15:01:48.619Z,16.71
2023-02-03T15:04:22.577Z,16.63
2023-02-03T15:06:54.713Z,16.57
2023-02-03T15:09:46.122Z,16.51
2023-02-03T15:12:26.718Z,16.44
2023-02-03T15:15:31.541Z,16.37
2023-02-03T15:18:21.546Z,16.30
2023-02-03T15:20:55.035Z,16.23
2023-02-03T15:23:38.843Z,16.18
2023-02-03T15:26:25.585Z,16.12
2023-02-03T15:29:07.361Z,16.05
2023-02-03T15:31:46.104Z,15.98
2023-02-03T15:34:18.110Z,15.93
2023-02-03T15:36:52.255Z,15.87
2023-02-03T15:39:33.267Z,15.81
2023-02-03T15:42:08.571Z,15.75
2023-02-03T15:44:46.832Z,15.69
2023-02-03T15:47:41.936Z,15.63
2023-02-03T15:50:31.082Z,15.57
2023-02-03T15:53:11.026Z,15.51
2023-02-03T15:55:48.028Z,15.45
2023-02-03T15:58:26.111Z,15.40
2023-02-03T16:01:08.642Z,15.34
2023-02-03T16:03:44.335Z,15.27
2023-02-03T16:06:19.967Z,15.21
2023-02-03T16:08:52.876Z,15.14
2023-02-03T16:11:36.484Z,15.10
2023-02-03T16:14:11.915Z,15.07
2023-02-03T16:17:03.933Z,15.06
2023-02-03T16:19:41.517Z,15.09
2023-02-03T16:22:40.591Z,15.11
2023-02-03T16:25:18.823Z,15.18
2023-02-03T16:28:21.144Z,15.24
2023-02-03T16:31:29.995Z,15.36
2023-02-03T16:34:29.127Z,15.49
2023-02-03T16:37:30.860Z,15.64
2023-02-03T16:40:21.514Z,15.80
2023-02-03T16:43:12.161Z,15.98
2023-02-03T16:46:02.715Z,16.16
2023-02-03T16:48:53.533Z,16.34
2023-02-03T16:51:26.195Z,16.53
2023-02-03T16:53:58.199Z,16.68
2023-02-03T16:56:30.142Z,16.83
2023-02-03T16:59:02.177Z,16.98
2023-02-03T17:01:34.094Z,17.09
2023-02-03T17:04:06.130Z,17.21
2023-02-03T17:06:39.731Z,17.28
2023-02-03T17:09:11.732Z,17.36
2023-02-03T17:11:43.602Z,17.43
2023-02-03T17:14:15.869Z,17.49
2023-02-03T17:16:47.823Z,17.51
2023-02-03T17:19:20.094Z,17.55
2023-02-03T17:21:52.762Z,17.55
2023-02-03T17:24:24.807Z,17.56
2023-02-03T17:26:58.859Z,17.56
2023-02-03T17:29:31.142Z,17.56
2023-02-03T17:32:03.082Z,17.54
2023-02-03T17:34:35.257Z,17.52
2023-02-03T17:37:07.262Z,17.50
2023-02-03T17:54:06.327Z,17.22
2023-02-03T17:56:38.244Z,17.17
2023-02-03T17:59:10.327Z,17.13
2023-02-03T18:01:42.552Z,17.07
2023-02-03T18:04:14.553Z,17.02
2023-02-03T18:06:46.658Z,16.98
2023-02-03T18:09:18.547Z,16.92
2023-02-03T18:11:50.590Z,16.88
2023-02-03T18:14:22.459Z,16.83
2023-02-03T18:16:54.321Z,16.77
2023-02-03T18:19:26.323Z,16.73
2023-02-03T18:22:00.103Z,16.67
2023-02-03T18:24:32.093Z,16.62
2023-02-03T18:27:04.208Z,16.57
2023-02-03T18:29:36.467Z,16.51
2023-02-03T18:32:08.320Z,16.46
2023-02-03T18:34:40.557Z,16.41
2023-02-03T18:37:12.538Z,16.35
2023-02-03T18:39:44.699Z,16.30
2023-02-03T18:42:16.640Z,16.25
2023-02-03T18:44:48.557Z,16.20
2023-02-03T18:47:20.414Z,16.15
2023-02-03T18:49:52.454Z,16.10
2023-02-03T18:52:24.337Z,16.05
2023-02-03T18:54:56.301Z,16.00
2023-02-03T18:57:28.790Z,15.96
2023-02-03T19:00:00.743Z,15.91
2023-02-03T19:02:33.634Z,15.85
2023-02-03T19:05:05.951Z,15.82
2023-02-03T19:07:37.873Z,15.76
2023-02-03T19:10:10.590Z,15.71
2023-02-03T19:12:42.499Z,15.66
2023-02-03T19:15:14.442Z,15.63
2023-02-03T19:17:46.447Z,15.58
2023-02-03T19:20:18.735Z,15.54
2023-02-03T19:22:50.725Z,15.50
2023-02-03T19:25:22.870Z,15.45
2023-02-03T19:27:54.871Z,15.41
2023-02-03T19:30:26.820Z,15.36
2023-02-03T19:32:59.097Z,15.31
2023-02-03T19:35:33.240Z,15.28
2023-02-03T19:38:05.485Z,15.23
2023-02-03T19:40:37.354Z,15.19
2023-02-03T19:43:10.348Z,15.15
2023-02-03T19:45:42.634Z,15.10
2023-02-03T19:48:14.702Z,15.06
2023-02-03T19:50:48.413Z,15.02
2023-02-03T19:53:21.745Z,14.97
2023-02-03T19:55:53.622Z,14.93
2023-02-03T19:58:25.672Z,14.89
2023-02-03T20:00:57.632Z,14.84
2023-02-03T20:03:29.611Z,14.79
2023-02-03T20:06:01.611Z,14.73
2023-02-03T20:08:33.573Z,14.69
2023-02-03T20:11:06.101Z,14.66
2023-02-03T20:13:38.108Z,14.65
2023-02-03T20:16:10.122Z,14.67
2023-02-03T20:18:42.063Z,14.69
2023-02-03T20:21:14.602Z,14.73
2023-02-03T20:23:46.573Z,14.81
2023-02-03T20:26:18.524Z,14.90
2023-02-03T20:28:50.418Z,15.00
2023-02-03T20:31:22.419Z,15.10
2023-02-03T20:33:54.343Z,15.24
2023-02-03T20:36:26.267Z,15.38
2023-02-03T20:38:58.270Z,15.53
2023-02-03T20:41:30.207Z,15.69
2023-02-03T20:44:02.635Z,15.87
2023-02-03T20:46:34.662Z,16.05
2023-02-03T20:49:15.434Z,16.20
2023-02-03T20:51:47.549Z,16.39
2023-02-03T20:54:21.759Z,16.56
2023-02-03T20:56:53.663Z,16.71
2023-02-03T20:59:25.572Z,16.87
2023-02-03T21:01:59.325Z,17.00
2023-02-03T21:04:49.900Z,17.10
2023-02-03T21:07:23.270Z,17.20
2023-02-03T21:09:55.561Z,17.29
2023-02-03T21:12:28.396Z,17.36
2023-02-03T21:15:00.382Z,17.41
2023-02-03T21:17:35.787Z,17.44
2023-02-03T21:20:19.368Z,17.47
2023-02-03T21:22:51.428Z,17.48
2023-02-03T21:25:34.041Z,17.49
2023-02-03T21:28:05.936Z,17.48
2023-02-03T21:30:37.919Z,17.47
2023-02-03T21:33:33.626Z,17.46
2023-02-03T21:36:05.746Z,17.45
2023-02-03T21:38:37.665Z,17.43
2023-02-03T21:41:17.801Z,17.40
2023-02-03T21:43:52.367Z,17.37
2023-02-03T21:46:28.336Z,17.35
2023-02-03T21:49:04.544Z,17.31
2023-02-03T21:51:38.731Z,17.26
2023-02-03T21:54:31.718Z,17.22
2023-02-03T21:57:03.575Z,17.15
2023-02-03T21:59:42.565Z,17.12
2023-02-03T22:02:51.041Z,17.06
2023-02-03T22:05:22.972Z,17.00
2023-02-03T22:07:55.040Z,16.96
2023-02-03T22:10:27.015Z,16.89
2023-02-03T22:12:58.961Z,16.85
2023-02-03T22:15:30.934Z,16.80
2023-02-03T22:18:02.916Z,16.76
2023-02-03T22:20:35.934Z,16.71
2023-02-03T22:23:07.762Z,16.65
2023-02-03T22:25:39.868Z,16.59
2023-02-03T22:28:12.018Z,16.53
2023-02-03T22:30:44.048Z,16.48
2023-02-03T22:33:16.032Z,16.43
2023-02-03T22:35:48.101Z,16.37
2023-02-03T22:38:20.132Z,16.32
2023-02-03T22:40:52.900Z,16.28
2023-02-03T22:43:26.023Z,16.22
2023-02-03T22:45:58.085Z,16.17
2023-02-03T22:48:30.693Z,16.13
2023-02-03T22:51:03.065Z,16.08
2023-02-03T22:53:35.120Z,16.04
2023-02-03T22:56:07.717Z,15.99
2023-02-03T22:58:39.668Z,15.94
2023-02-03T23:01:11.623Z,15.89
2023-02-03T23:03:43.581Z,15.84
2023-02-03T23:06:15.493Z,15.80
2023-02-03T23:08:47.455Z,15.75
2023-02-03T23:11:19.852Z,15.70
2023-02-03T23:13:51.790Z,15.65
2023-02-03T23:16:23.784Z,15.61
2023-02-03T23:18:55.687Z,15.56
2023-02-03T23:21:27.681Z,15.52
2023-02-03T23:23:59.605Z,15.48
2023-02-03T23:26:32.001Z,15.44
2023-02-03T23:29:04.034Z,15.39
2023-02-03T23:31:36.043Z,15.35
2023-02-03T23:34:26.714Z,15.30
2023-02-03T23:37:01.560Z,15.25
2023-02-03T23:39:33.530Z,15.22
2023-02-03T23:42:05.501Z,15.17
2023-02-03T23:44:37.412Z,15.12
2023-02-03T23:47:09.364Z,15.08
2023-02-03T23:49:41.324Z,15.04
2023-02-03T23:52:13.268Z,14.99
2023-02-03T23:54:45.153Z,14.95
2023-02-03T23:57:17.069Z,14.91
2023-02-03T23:59:48.970Z,14.87
